createdAt,value
2019-02-07T00:01:25.046Z,86.40
2019-02-07T00:03:54.826Z,86.32
2019-02-07T00:06:23.964Z,86.23
2019-02-07T00:08:53.648Z,86.18
2019-02-07T00:11:23.426Z,86.25
2019-02-07T00:13:52.684Z,86.27
2019-02-07T00:16:22.395Z,86.29
2019-02-07T00:18:51.526Z,86.29
2019-02-07T00:21:20.679Z,86.54
2019-02-07T00:23:49.904Z,86.44
2019-02-07T00:26:19.072Z,86.36
2019-02-07T00:28:48.508Z,86.41
2019-02-07T00:31:18.015Z,86.26
2019-02-07T00:33:47.153Z,86.22
2019-02-07T00:36:16.346Z,86.15
2019-02-07T00:38:45.500Z,86.11
2019-02-07T00:41:14.665Z,86.09
2019-02-07T00:43:43.954Z,86.16
2019-02-07T00:46:13.427Z,86.21
2019-02-07T00:48:42.629Z,86.17
2019-02-07T00:51:12.028Z,86.33
2019-02-07T00:53:41.184Z,86.25
2019-02-07T00:56:10.911Z,86.11
2019-02-07T00:58:40.138Z,86.07
2019-02-07T01:01:09.485Z,86.07
2019-02-07T01:03:38.686Z,86.07
2019-02-07T01:06:07.951Z,86.02
2019-02-07T01:08:37.235Z,85.94
2019-02-07T01:11:06.423Z,86.03
2019-02-07T01:13:35.726Z,86.17
2019-02-07T01:16:05.309Z,86.25
2019-02-07T01:18:34.517Z,86.22
2019-02-07T01:21:03.685Z,86.25
2019-02-07T01:23:33.135Z,86.19
2019-02-07T01:26:02.292Z,86.20
2019-02-07T01:28:31.583Z,86.19
2019-02-07T01:31:01.910Z,86.12
2019-02-07T01:33:31.075Z,86.29
2019-02-07T01:36:00.253Z,86.43
2019-02-07T01:38:29.408Z,86.43
2019-02-07T01:40:58.608Z,86.54
2019-02-07T01:43:27.760Z,86.74
2019-02-07T01:45:57.235Z,86.85
2019-02-07T01:48:26.712Z,86.87
2019-02-07T01:50:55.866Z,86.92
2019-02-07T01:53:25.030Z,86.91
2019-02-07T01:55:54.227Z,86.83
2019-02-07T01:58:23.405Z,86.86
2019-02-07T02:00:52.758Z,86.87
2019-02-07T02:03:21.946Z,86.89
2019-02-07T02:05:51.144Z,86.85
2019-02-07T02:08:20.444Z,86.85
2019-02-07T02:10:49.589Z,86.90
2019-02-07T02:13:18.856Z,86.92
2019-02-07T02:15:48.331Z,86.93
2019-02-07T02:18:17.487Z,86.92
2019-02-07T02:20:46.784Z,86.90
2019-02-07T02:23:16.024Z,86.80
2019-02-07T02:25:45.194Z,86.82
2019-02-07T02:28:14.382Z,86.85
2019-02-07T02:30:43.927Z,86.92
2019-02-07T02:33:13.263Z,87.08
2019-02-07T02:35:42.842Z,87.14
2019-02-07T02:38:11.980Z,87.15
2019-02-07T02:40:41.209Z,87.08
2019-02-07T02:43:10.425Z,86.97
2019-02-07T02:45:40.187Z,86.87
2019-02-07T02:48:09.431Z,86.84
2019-02-07T02:50:38.625Z,86.52
2019-02-07T02:53:07.804Z,86.35
2019-02-07T02:55:42.329Z,86.20
2019-02-07T02:58:11.701Z,86.05
2019-02-07T03:01:09.613Z,85.84
2019-02-07T03:03:48.172Z,85.64
2019-02-07T03:06:39.356Z,85.71
2019-02-07T03:09:19.635Z,85.69
2019-02-07T03:12:13.522Z,85.64
2019-02-07T03:15:07.885Z,85.71
2019-02-07T03:18:02.265Z,85.49
2019-02-07T03:20:44.516Z,85.48
2019-02-07T03:23:32.646Z,85.53
2019-02-07T03:26:39.013Z,85.55
2019-02-07T03:29:35.911Z,85.61
2019-02-07T03:32:20.725Z,85.83
2019-02-07T03:35:18.304Z,85.27
2019-02-07T03:38:05.057Z,85.23
2019-02-07T03:40:56.483Z,85.37
2019-02-07T03:43:41.018Z,85.29
2019-02-07T03:46:29.775Z,85.36
2019-02-07T03:49:06.757Z,85.40
2019-02-07T03:51:53.799Z,85.42
2019-02-07T03:54:40.918Z,85.28
2019-02-07T03:57:29.049Z,85.58
2019-02-07T04:00:23.435Z,85.40
2019-02-07T04:03:04.613Z,85.34
2019-02-07T04:06:03.030Z,85.26
2019-02-07T04:08:49.853Z,85.05
2019-02-07T04:11:37.002Z,85.08
2019-02-07T04:14:34.821Z,85.13
2019-02-07T04:17:16.992Z,85.11
2019-02-07T04:20:23.064Z,85.20
2019-02-07T04:23:11.442Z,85.15
2019-02-07T04:26:05.517Z,85.14
2019-02-07T04:28:47.656Z,85.17
2019-02-07T04:31:48.264Z,85.26
2019-02-07T04:34:37.833Z,85.09
2019-02-07T04:37:25.324Z,85.09
2019-02-07T04:40:17.384Z,85.09
2019-02-07T04:43:15.439Z,85.18
2019-02-07T04:46:12.429Z,85.25
2019-02-07T04:48:59.040Z,85.20
2019-02-07T04:51:37.135Z,85.32
2019-02-07T04:54:27.616Z,85.28
2019-02-07T04:57:18.748Z,85.48
2019-02-07T05:00:15.762Z,85.54
2019-02-07T05:03:04.143Z,85.63
2019-02-07T05:05:52.235Z,85.74
2019-02-07T05:08:52.833Z,85.77
2019-02-07T05:11:49.414Z,85.78
2019-02-07T05:14:43.657Z,85.80
2019-02-07T05:17:35.040Z,85.80
2019-02-07T05:20:39.252Z,85.88
2019-02-07T05:23:22.381Z,85.78
2019-02-07T05:26:11.819Z,85.91
2019-02-07T05:29:02.976Z,85.89
2019-02-07T05:31:49.806Z,85.96
2019-02-07T05:34:36.311Z,86.02
2019-02-07T05:37:27.304Z,86.03
2019-02-07T05:40:06.758Z,85.98
2019-02-07T05:43:12.792Z,85.97
2019-02-07T05:45:55.487Z,85.96
2019-02-07T05:48:42.413Z,86.03
2019-02-07T05:51:42.660Z,86.00
2019-02-07T05:54:42.660Z,85.99
2019-02-07T05:57:29.582Z,86.05
2019-02-07T06:00:32.855Z,86.11
2019-02-07T06:03:25.219Z,86.09
2019-02-07T06:06:16.202Z,86.15
2019-02-07T06:09:07.381Z,86.13
2019-02-07T06:14:52.270Z,86.04
2019-02-07T06:17:34.183Z,85.93
2019-02-07T06:20:22.309Z,85.92
2019-02-07T06:23:13.413Z,85.75
2019-02-07T06:26:00.017Z,85.51
2019-02-07T06:28:53.282Z,85.45
2019-02-07T06:31:40.662Z,85.27
2019-02-07T06:34:31.771Z,85.39
2019-02-07T06:37:26.041Z,85.37
2019-02-07T06:40:14.161Z,85.34
2019-02-07T06:42:50.532Z,85.34
2019-02-07T06:45:51.136Z,85.18
2019-02-07T06:48:45.074Z,85.25
2019-02-07T06:51:30.626Z,85.20
2019-02-07T06:54:24.888Z,84.93
2019-02-07T06:57:11.544Z,84.54
2019-02-07T07:00:02.565Z,84.42
2019-02-07T07:02:56.665Z,84.37
2019-02-07T07:05:41.421Z,84.34
2019-02-07T07:08:26.099Z,83.88
2019-02-07T07:11:23.328Z,83.66
2019-02-07T07:14:11.444Z,83.12
2019-02-07T07:17:05.700Z,83.10
2019-02-07T07:19:53.787Z,83.05
2019-02-07T07:22:44.707Z,82.89
2019-02-07T07:25:31.466Z,83.10
2019-02-07T07:28:19.499Z,83.18
2019-02-07T07:31:22.963Z,83.49
2019-02-07T07:34:14.032Z,83.55
2019-02-07T07:37:02.176Z,83.90
2019-02-07T07:39:56.271Z,84.22
2019-02-07T07:42:44.678Z,84.14
2019-02-07T07:45:35.080Z,84.11
2019-02-07T07:48:21.671Z,84.03
2019-02-07T07:51:09.802Z,84.21
2019-02-07T07:54:05.206Z,84.26
2019-02-07T07:56:54.746Z,84.47
2019-02-07T07:59:45.886Z,84.53
2019-02-07T08:02:34.060Z,84.49
2019-02-07T08:05:13.388Z,84.34
2019-02-07T08:07:59.859Z,84.14
2019-02-07T08:10:54.088Z,83.98
2019-02-07T08:13:40.930Z,83.95
2019-02-07T08:16:28.141Z,83.92
2019-02-07T08:19:28.860Z,84.07
2019-02-07T08:22:16.140Z,84.07
2019-02-07T08:25:04.281Z,84.14
2019-02-07T08:27:48.448Z,84.15
2019-02-07T08:30:37.516Z,83.90
2019-02-07T08:33:40.891Z,83.93
2019-02-07T08:36:29.012Z,83.71
2019-02-07T08:39:05.115Z,83.63
2019-02-07T08:42:00.032Z,83.43
2019-02-07T08:44:55.194Z,83.40
2019-02-07T08:47:43.460Z,83.58
2019-02-07T08:50:39.312Z,83.65
2019-02-07T08:53:20.980Z,83.66
2019-02-07T08:56:11.827Z,83.84
2019-02-07T08:59:00.421Z,84.03
2019-02-07T09:01:51.382Z,83.50
2019-02-07T09:04:42.555Z,82.36
2019-02-07T09:07:32.162Z,81.66
2019-02-07T09:10:10.769Z,81.00
2019-02-07T09:12:59.029Z,80.63
2019-02-07T09:15:53.083Z,80.55
2019-02-07T09:18:49.685Z,79.77
2019-02-07T09:21:31.213Z,79.73
2019-02-07T09:24:26.263Z,79.43
2019-02-07T09:27:14.857Z,78.32
2019-02-07T09:30:02.971Z,76.91
2019-02-07T09:32:58.379Z,75.47
2019-02-07T09:35:35.993Z,73.68
2019-02-07T09:38:27.328Z,72.00
2019-02-07T09:41:18.553Z,70.80
2019-02-07T09:44:25.162Z,70.02
2019-02-07T09:47:04.036Z,70.18
2019-02-07T09:49:44.087Z,68.99
2019-02-07T09:52:41.119Z,68.23
2019-02-07T09:55:32.809Z,67.55
2019-02-07T09:58:21.053Z,67.07
2019-02-07T10:01:12.189Z,66.98
2019-02-07T10:04:09.393Z,67.52
2019-02-07T10:07:00.468Z,67.49
2019-02-07T10:09:54.355Z,68.10
2019-02-07T10:12:41.036Z,67.00
2019-02-07T10:15:27.831Z,68.02
2019-02-07T10:18:05.760Z,68.66
2019-02-07T10:20:49.249Z,66.29
2019-02-07T10:23:43.316Z,66.01
2019-02-07T10:26:30.084Z,66.37
2019-02-07T10:29:26.939Z,64.14
2019-02-07T10:32:17.826Z,63.89
2019-02-07T10:35:24.224Z,64.05
2019-02-07T10:38:11.130Z,63.11
2019-02-07T10:41:17.603Z,62.78
2019-02-07T10:43:57.192Z,62.05
2019-02-07T10:46:57.536Z,62.07
2019-02-07T10:49:46.883Z,61.12
2019-02-07T10:52:55.007Z,61.66
2019-02-07T10:55:55.343Z,61.57
2019-02-07T10:58:49.510Z,61.93
2019-02-07T11:01:40.495Z,60.61
2019-02-07T11:04:18.005Z,61.55
2019-02-07T11:07:07.444Z,61.07
2019-02-07T11:09:48.647Z,60.99
2019-02-07T11:12:26.845Z,61.11
2019-02-07T11:15:21.248Z,60.57
2019-02-07T11:18:09.399Z,60.85
2019-02-07T11:20:57.521Z,60.83
2019-02-07T11:23:44.272Z,59.58
2019-02-07T11:26:31.175Z,59.26
2019-02-07T11:29:14.414Z,60.19
2019-02-07T11:31:56.197Z,60.01
2019-02-07T11:34:42.883Z,59.77
2019-02-07T11:37:26.886Z,59.08
2019-02-07T11:40:07.039Z,58.69
2019-02-07T11:42:48.984Z,58.42
2019-02-07T11:45:40.079Z,59.50
2019-02-07T11:48:28.142Z,58.49
2019-02-07T11:51:16.252Z,58.90
2019-02-07T11:54:03.961Z,59.06
2019-02-07T11:56:57.619Z,59.06
2019-02-07T11:59:38.296Z,58.49
2019-02-07T12:02:20.068Z,58.64
2019-02-07T12:05:06.718Z,59.00
2019-02-07T12:08:00.644Z,59.00
2019-02-07T12:10:51.983Z,58.07
2019-02-07T12:13:30.730Z,57.54
2019-02-07T12:16:20.104Z,56.90
2019-02-07T12:19:18.021Z,56.06
2019-02-07T12:22:00.667Z,56.32
2019-02-07T12:24:47.640Z,55.53
2019-02-07T12:27:47.813Z,55.45
2019-02-07T12:30:51.676Z,54.92
2019-02-07T12:33:38.668Z,55.50
2019-02-07T12:36:25.002Z,56.69
2019-02-07T12:39:05.615Z,54.83
2019-02-07T12:42:03.501Z,55.31
2019-02-07T12:44:54.803Z,55.63
2019-02-07T12:47:44.511Z,54.96
2019-02-07T12:50:37.393Z,54.18
2019-02-07T12:53:20.903Z,54.75
2019-02-07T12:56:18.560Z,54.71
2019-02-07T12:59:05.913Z,56.56
2019-02-07T13:02:06.001Z,56.71
2019-02-07T13:05:03.053Z,57.11
2019-02-07T13:08:03.205Z,58.39
2019-02-07T13:10:57.180Z,58.20
2019-02-07T13:13:40.787Z,58.19
2019-02-07T13:16:21.348Z,58.12
2019-02-07T13:19:03.771Z,58.57
2019-02-07T13:22:00.721Z,59.41
2019-02-07T13:24:48.835Z,58.70
2019-02-07T13:27:35.673Z,58.13
2019-02-07T13:30:33.123Z,58.28
2019-02-07T13:33:20.364Z,58.53
2019-02-07T13:36:07.184Z,58.27
2019-02-07T13:38:48.288Z,57.96
2019-02-07T13:41:36.430Z,58.33
2019-02-07T13:44:38.017Z,58.44
2019-02-07T13:47:24.580Z,58.55
2019-02-07T13:50:05.860Z,58.77
2019-02-07T13:52:53.949Z,58.51
2019-02-07T13:55:39.110Z,58.25
2019-02-07T13:58:30.325Z,58.37
2019-02-07T14:01:27.037Z,58.83
2019-02-07T14:04:18.220Z,58.25
2019-02-07T14:07:04.825Z,56.90
2019-02-07T14:10:08.092Z,57.43
2019-02-07T14:13:06.255Z,56.86
2019-02-07T14:15:46.185Z,57.60
2019-02-07T14:18:35.560Z,58.16
2019-02-07T14:21:23.138Z,58.26
2019-02-07T14:24:10.127Z,57.93
2019-02-07T14:27:04.820Z,59.07
2019-02-07T14:30:04.766Z,59.37
2019-02-07T14:33:04.955Z,58.15
2019-02-07T14:35:58.896Z,56.24
2019-02-07T14:38:46.995Z,56.83
2019-02-07T14:41:36.249Z,57.84
2019-02-07T14:44:30.660Z,55.92
2019-02-07T14:46:59.911Z,54.76
2019-02-07T14:49:29.283Z,54.40
2019-02-07T14:51:58.918Z,54.89
2019-02-07T14:54:28.201Z,54.05
2019-02-07T14:56:57.415Z,53.68
2019-02-07T14:59:26.617Z,54.75
2019-02-07T15:01:55.860Z,56.10
2019-02-07T15:04:25.015Z,56.99
2019-02-07T15:06:54.700Z,58.19
2019-02-07T15:09:23.921Z,58.32
2019-02-07T15:11:53.097Z,58.35
2019-02-07T15:14:22.291Z,57.87
2019-02-07T15:16:51.500Z,58.11
2019-02-07T15:19:20.735Z,58.36
2019-02-07T15:21:50.162Z,57.53
2019-02-07T15:24:19.337Z,57.98
2019-02-07T15:26:48.683Z,58.06
2019-02-07T15:29:17.855Z,57.91
2019-02-07T15:31:47.056Z,58.00
2019-02-07T15:34:16.485Z,58.02
2019-02-07T15:36:47.845Z,58.26
2019-02-07T15:39:18.053Z,57.80
2019-02-07T15:41:47.460Z,56.93
2019-02-07T15:44:16.841Z,55.57
2019-02-07T15:46:45.996Z,55.99
2019-02-07T15:49:16.442Z,56.24
2019-02-07T15:51:46.065Z,56.13
2019-02-07T15:54:15.291Z,56.21
2019-02-07T15:56:44.732Z,56.82
2019-02-07T15:59:39.008Z,56.75
2019-02-07T16:02:36.382Z,56.04
2019-02-07T16:05:09.000Z,56.76
2019-02-07T16:07:38.409Z,57.16
2019-02-07T16:10:11.452Z,56.71
2019-02-07T16:12:40.837Z,56.83
2019-02-07T16:15:11.097Z,56.84
2019-02-07T16:17:40.279Z,57.40
2019-02-07T16:20:16.189Z,57.67
2019-02-07T16:22:45.781Z,57.79
2019-02-07T16:25:16.026Z,57.38
2019-02-07T16:27:45.295Z,57.91
2019-02-07T16:30:19.154Z,57.91
2019-02-07T16:32:48.473Z,58.35
2019-02-07T16:35:18.163Z,58.42
2019-02-07T16:37:47.339Z,58.06
2019-02-07T16:40:17.406Z,58.55
2019-02-07T16:42:46.647Z,57.46
2019-02-07T16:45:16.873Z,57.97
2019-02-07T16:47:46.095Z,57.81
2019-02-07T16:50:16.694Z,57.93
2019-02-07T16:52:46.207Z,57.21
2019-02-07T16:55:15.562Z,57.15
2019-02-07T16:57:44.791Z,57.32
2019-02-07T17:00:18.086Z,57.36
2019-02-07T17:02:47.471Z,57.19
2019-02-07T17:05:18.056Z,57.28
2019-02-07T17:07:47.217Z,57.92
2019-02-07T17:10:23.735Z,58.52
2019-02-07T17:12:52.896Z,58.37
2019-02-07T17:15:22.036Z,57.77
2019-02-07T17:17:53.245Z,58.94
2019-02-07T17:20:26.499Z,58.96
2019-02-07T17:22:55.705Z,58.69
2019-02-07T17:25:24.897Z,58.49
2019-02-07T17:27:54.127Z,58.74
2019-02-07T17:30:23.543Z,59.05
2019-02-07T17:32:53.199Z,59.42
2019-02-07T17:35:22.553Z,59.43
2019-02-07T17:37:51.905Z,59.61
2019-02-07T17:40:21.608Z,59.64
2019-02-07T17:42:51.087Z,60.12
2019-02-07T17:45:22.468Z,59.88
2019-02-07T17:47:52.010Z,60.37
2019-02-07T17:50:23.960Z,60.41
2019-02-07T17:52:53.199Z,60.77
2019-02-07T17:55:23.026Z,60.38
2019-02-07T17:57:52.371Z,60.74
2019-02-07T18:00:41.507Z,60.53
2019-02-07T18:03:10.695Z,61.07
2019-02-07T18:05:39.967Z,61.33
2019-02-07T18:08:09.903Z,61.38
2019-02-07T18:10:39.675Z,61.08
2019-02-07T18:13:09.434Z,60.99
2019-02-07T18:15:38.864Z,60.90
2019-02-07T18:18:08.523Z,61.41
2019-02-07T18:20:37.743Z,61.09
2019-02-07T18:23:06.992Z,60.57
2019-02-07T18:25:36.390Z,60.38
2019-02-07T18:28:06.234Z,60.04
2019-02-07T18:30:35.583Z,60.70
2019-02-07T18:33:04.750Z,60.65
2019-02-07T18:35:34.047Z,60.55
2019-02-07T18:38:03.451Z,60.83
2019-02-07T18:40:32.855Z,61.00
2019-02-07T18:43:02.677Z,61.60
2019-02-07T18:45:32.345Z,61.48
2019-02-07T18:48:01.999Z,61.23
2019-02-07T18:50:33.503Z,61.90
2019-02-07T18:53:02.678Z,61.89
2019-02-07T18:55:31.866Z,61.97
2019-02-07T18:58:02.260Z,62.01
2019-02-07T19:00:32.733Z,62.26
2019-02-07T19:03:03.207Z,62.15
2019-02-07T19:05:32.383Z,62.01
2019-02-07T19:08:01.607Z,62.16
2019-02-07T19:10:30.889Z,62.52
2019-02-07T19:13:01.439Z,63.61
2019-02-07T19:15:40.212Z,66.61
2019-02-07T19:18:09.544Z,70.23
2019-02-07T19:20:38.798Z,75.52
2019-02-07T19:23:08.704Z,79.31
2019-02-07T19:25:38.331Z,80.81
2019-02-07T19:28:08.173Z,81.88
2019-02-07T19:30:37.494Z,82.35
2019-02-07T19:33:07.028Z,82.07
2019-02-07T19:35:36.850Z,81.77
2019-02-07T19:38:06.446Z,82.30
2019-02-07T19:40:37.144Z,83.10
2019-02-07T19:43:06.580Z,83.96
2019-02-07T19:45:35.898Z,84.22
2019-02-07T19:48:05.474Z,84.42
2019-02-07T19:50:34.874Z,83.74
2019-02-07T19:53:04.246Z,83.31
2019-02-07T19:55:35.939Z,83.48
2019-02-07T19:58:05.603Z,83.41
2019-02-07T20:00:35.047Z,83.64
2019-02-07T20:03:04.415Z,83.63
2019-02-07T20:05:34.778Z,83.78
2019-02-07T20:08:04.595Z,83.57
2019-02-07T20:10:34.469Z,83.45
2019-02-07T20:13:04.032Z,82.94
2019-02-07T20:15:35.893Z,82.79
2019-02-07T20:18:06.393Z,83.32
2019-02-07T20:20:37.288Z,82.84
2019-02-07T20:23:06.545Z,82.15
2019-02-07T20:25:36.463Z,81.90
2019-02-07T20:28:06.040Z,81.86
2019-02-07T20:30:37.378Z,80.07
2019-02-07T20:33:08.471Z,80.81
2019-02-07T20:35:37.805Z,81.77
2019-02-07T20:38:08.507Z,81.62
2019-02-07T20:40:38.579Z,80.96
2019-02-07T20:43:08.033Z,80.99
2019-02-07T20:45:37.325Z,81.14
2019-02-07T20:48:08.627Z,81.03
2019-02-07T20:50:38.071Z,80.94
2019-02-07T20:53:10.476Z,80.92
2019-02-07T20:55:39.714Z,80.92
2019-02-07T20:58:09.521Z,80.98
2019-02-07T21:00:39.293Z,79.93
2019-02-07T21:03:09.521Z,79.81
2019-02-07T21:05:39.344Z,79.01
2019-02-07T21:08:08.717Z,79.23
2019-02-07T21:10:38.273Z,78.67
2019-02-07T21:13:08.046Z,77.62
2019-02-07T21:15:37.284Z,77.03
2019-02-07T21:18:06.630Z,76.73
2019-02-07T21:20:36.801Z,76.19
2019-02-07T21:23:06.527Z,75.92
2019-02-07T21:25:46.103Z,76.09
2019-02-07T21:28:15.547Z,76.12
2019-02-07T21:30:44.922Z,76.26
2019-02-07T21:33:14.396Z,76.21
2019-02-07T21:35:43.745Z,75.76
2019-02-07T21:38:13.093Z,75.50
2019-02-07T21:40:42.333Z,76.17
2019-02-07T21:43:13.075Z,75.66
2019-02-07T21:45:42.378Z,75.62
2019-02-07T21:48:12.172Z,75.34
2019-02-07T21:50:41.858Z,75.58
2019-02-07T21:53:11.038Z,75.81
2019-02-07T21:55:40.360Z,76.06
2019-02-07T21:58:09.811Z,76.21
2019-02-07T22:00:40.867Z,75.70
2019-02-07T22:03:11.814Z,75.67
2019-02-07T22:05:41.398Z,75.38
2019-02-07T22:08:10.553Z,75.53
2019-02-07T22:10:39.811Z,75.47
2019-02-07T22:13:09.706Z,75.28
2019-02-07T22:15:38.874Z,75.27
2019-02-07T22:18:09.433Z,75.14
2019-02-07T22:20:38.647Z,75.67
2019-02-07T22:23:07.874Z,75.52
2019-02-07T22:25:37.056Z,75.57
2019-02-07T22:28:06.974Z,75.38
2019-02-07T22:30:36.568Z,75.42
2019-02-07T22:33:06.525Z,75.04
2019-02-07T22:35:35.913Z,74.46
2019-02-07T22:38:06.251Z,74.57
2019-02-07T22:40:35.465Z,74.74
2019-02-07T22:43:04.796Z,74.81
2019-02-07T22:45:33.998Z,75.12
2019-02-07T22:48:03.235Z,74.37
2019-02-07T22:50:32.475Z,74.11
2019-02-07T22:53:02.170Z,74.39
2019-02-07T22:55:31.425Z,74.39
2019-02-07T22:58:00.629Z,74.43
2019-02-07T23:01:26.370Z,74.02
2019-02-07T23:03:57.769Z,74.29
2019-02-07T23:06:26.991Z,74.51
2019-02-07T23:08:56.254Z,74.19
2019-02-07T23:11:26.094Z,74.36
2019-02-07T23:13:55.326Z,74.22
2019-02-07T23:16:24.513Z,74.35
2019-02-07T23:18:54.972Z,74.24
2019-02-07T23:21:24.332Z,74.04
2019-02-07T23:23:53.519Z,74.50
2019-02-07T23:26:22.682Z,74.56
2019-02-07T23:28:52.164Z,74.27
2019-02-07T23:31:21.348Z,73.61
2019-02-07T23:33:50.535Z,73.24
2019-02-07T23:36:19.893Z,73.21
2019-02-07T23:38:49.101Z,74.01
2019-02-07T23:41:18.277Z,74.20
2019-02-07T23:43:47.503Z,74.71
2019-02-07T23:46:16.714Z,74.58
2019-02-07T23:48:46.141Z,75.61
2019-02-07T23:51:15.326Z,75.53
2019-02-07T23:53:44.611Z,75.46
2019-02-07T23:56:13.742Z,75.48
2019-02-07T23:58:42.916Z,75.37
